This is the latest recevied weather packets stored in our database for station/object K8JCL-13. If no packets are shown the sender has not sent any weather packets the latest 1 day(s).
| Time | Temp. | Humidity | Pressure | Rain* | Wind** | Luminosity | Snow |
|---|---|---|---|---|---|---|---|
| 1778077366 | 10.56° C | 78% | 1012.7 hPa | 0 mm | - | 542 W/m² | - |
| 1778074942 | 8.89° C | 87% | 1012.5 hPa | 0 mm | - | 161 W/m² | - |
| 1778074033 | 8.33° C | 89% | 1012.2 hPa | 0 mm | - | 137 W/m² | - |
| 1778071913 | 7.78° C | 92% | 1011.9 hPa | 0 mm | - | 136 W/m² | - |
| 1778070401 | 7.22° C | 94% | 1011.5 hPa | 0 mm | - | 66 W/m² | - |
| 1778069492 | 7.22° C | 95% | 1011.4 hPa | 0 mm | - | 47 W/m² | - |
| 1778069190 | 7.22° C | 95% | 1011 hPa | 0 mm | - | 58 W/m² | - |
| 1778068887 | 6.67° C | 95% | 1011.1 hPa | 0 mm | - | 57 W/m² | - |
| 1778068586 | 6.67° C | 96% | 1010.8 hPa | 0 mm | - | 39 W/m² | - |
| 1778066165 | 6.11° C | 99% | 1010.2 hPa | 0 mm | - | 12 W/m² | - |
| 1778065560 | 6.11° C | 99% | 1010.3 hPa | 0 mm | - | 9 W/m² | - |
| 1778064953 | 6.11° C | 99% | 1010.3 hPa | 0 mm | - | 4 W/m² | - |
| 1778064046 | 6.11° C | 99% | 1009.9 hPa | 0 mm | - | 1 W/m² | - |
| 1778063743 | 6.11° C | 99% | 1009.8 hPa | 0 mm | - | 1 W/m² | - |
| 1778063138 | 6.11° C | 99% | 1009.2 hPa | 0 mm | - | 0 W/m² | - |
| 1778061927 | 6.67° C | 99% | 1009.6 hPa | 0 mm | - | 0 W/m² | - |
| 1778061019 | 6.67° C | 99% | 1009.4 hPa | 0 mm | - | 0 W/m² | - |
| 1778060717 | 6.67° C | 99% | 1009.2 hPa | 0 mm | - | 0 W/m² | - |
| 1778060113 | 6.67° C | 99% | 1008.6 hPa | 0 mm | - | 0 W/m² | - |
| 1778059810 | 6.67° C | 99% | 1008.9 hPa | 0 mm | - | 0 W/m² | - |
| 1778059508 | 6.67° C | 99% | 1008.6 hPa | 0 mm | - | 0 W/m² | - |
| 1778058903 | 6.67° C | 99% | 1008.3 hPa | 0 mm | - | 0 W/m² | - |
| 1778057993 | 6.67° C | 99% | 1008.9 hPa | 0 mm | - | 0 W/m² | - |
| 1778056174 | 6.67° C | 99% | 1008.5 hPa | 0 mm | - | 0 W/m² | - |
| 1778055567 | 6.67° C | 99% | 1008.6 hPa | 0 mm | - | 0 W/m² | - |
* Rain latest hour (hover to see other rain measurements)
** Current wind speed in m/s (hover to see current wind gust speed)